sensor_id;sensor_type;location;lat;lon;timestamp;P1;durP1;ratioP1;P2;durP2;ratioP2
21091;SDS011;10704;42.678;23.288;2023-05-14T00:02:17;8.30;;;3.17;;
21091;SDS011;10704;42.678;23.288;2023-05-14T00:04:43;4.97;;;3.20;;
21091;SDS011;10704;42.678;23.288;2023-05-14T00:07:09;4.63;;;2.63;;
21091;SDS011;10704;42.678;23.288;2023-05-14T00:09:35;6.32;;;3.03;;
21091;SDS011;10704;42.678;23.288;2023-05-14T00:12:02;6.50;;;3.38;;
21091;SDS011;10704;42.678;23.288;2023-05-14T00:14:28;8.63;;;3.15;;
21091;SDS011;10704;42.678;23.288;2023-05-14T00:16:54;6.93;;;3.40;;
21091;SDS011;10704;42.678;23.288;2023-05-14T00:19:19;5.90;;;3.22;;
21091;SDS011;10704;42.678;23.288;2023-05-14T00:21:46;6.10;;;3.42;;
21091;SDS011;10704;42.678;23.288;2023-05-14T00:24:12;9.65;;;3.65;;
21091;SDS011;10704;42.678;23.288;2023-05-14T00:26:38;6.25;;;3.40;;
21091;SDS011;10704;42.678;23.288;2023-05-14T00:29:04;5.28;;;3.40;;
21091;SDS011;10704;42.678;23.288;2023-05-14T00:31:30;7.60;;;3.70;;
21091;SDS011;10704;42.678;23.288;2023-05-14T00:33:56;5.38;;;3.22;;
21091;SDS011;10704;42.678;23.288;2023-05-14T00:36:22;5.93;;;3.20;;
21091;SDS011;10704;42.678;23.288;2023-05-14T00:38:48;5.47;;;3.63;;
21091;SDS011;10704;42.678;23.288;2023-05-14T00:41:14;5.80;;;3.60;;
21091;SDS011;10704;42.678;23.288;2023-05-14T00:43:40;5.47;;;3.35;;
21091;SDS011;10704;42.678;23.288;2023-05-14T00:46:05;4.90;;;3.05;;
21091;SDS011;10704;42.678;23.288;2023-05-14T00:48:32;6.30;;;3.15;;
21091;SDS011;10704;42.678;23.288;2023-05-14T00:50:58;8.25;;;4.50;;
21091;SDS011;10704;42.678;23.288;2023-05-14T00:53:25;8.27;;;3.55;;
21091;SDS011;10704;42.678;23.288;2023-05-14T00:55:51;7.90;;;3.30;;
21091;SDS011;10704;42.678;23.288;2023-05-14T00:58:18;6.38;;;3.50;;
21091;SDS011;10704;42.678;23.288;2023-05-14T01:00:45;4.85;;;2.90;;
21091;SDS011;10704;42.678;23.288;2023-05-14T01:03:11;7.43;;;3.28;;
21091;SDS011;10704;42.678;23.288;2023-05-14T01:10:48;4.10;;;2.90;;
21091;SDS011;10704;42.678;23.288;2023-05-14T01:15:54;5.22;;;3.30;;
21091;SDS011;10704;42.678;23.288;2023-05-14T01:18:21;5.18;;;2.97;;
21091;SDS011;10704;42.678;23.288;2023-05-14T01:20:49;5.25;;;3.00;;
21091;SDS011;10704;42.678;23.288;2023-05-14T01:23:18;6.20;;;2.97;;
21091;SDS011;10704;42.678;23.288;2023-05-14T01:25:44;3.95;;;2.50;;
21091;SDS011;10704;42.678;23.288;2023-05-14T01:28:18;5.75;;;2.53;;
21091;SDS011;10704;42.678;23.288;2023-05-14T01:33:15;6.53;;;2.60;;
21091;SDS011;10704;42.678;23.288;2023-05-14T01:35:43;5.22;;;2.78;;
21091;SDS011;10704;42.678;23.288;2023-05-14T01:38:10;5.47;;;3.20;;
21091;SDS011;10704;42.678;23.288;2023-05-14T01:40:38;5.55;;;3.10;;
21091;SDS011;10704;42.678;23.288;2023-05-14T01:43:05;6.45;;;2.95;;
21091;SDS011;10704;42.678;23.288;2023-05-14T01:45:33;7.40;;;3.05;;
21091;SDS011;10704;42.678;23.288;2023-05-14T01:47:59;4.93;;;2.83;;
21091;SDS011;10704;42.678;23.288;2023-05-14T01:50:25;7.35;;;3.03;;
21091;SDS011;10704;42.678;23.288;2023-05-14T01:52:51;7.80;;;2.90;;
21091;SDS011;10704;42.678;23.288;2023-05-14T01:55:20;5.10;;;2.70;;
21091;SDS011;10704;42.678;23.288;2023-05-14T01:57:49;5.40;;;2.45;;
21091;SDS011;10704;42.678;23.288;2023-05-14T02:00:15;5.13;;;2.88;;
21091;SDS011;10704;42.678;23.288;2023-05-14T02:02:41;5.60;;;2.60;;
21091;SDS011;10704;42.678;23.288;2023-05-14T02:05:10;3.45;;;2.58;;
21091;SDS011;10704;42.678;23.288;2023-05-14T02:07:37;5.43;;;2.67;;
21091;SDS011;10704;42.678;23.288;2023-05-14T02:10:03;7.53;;;2.90;;
21091;SDS011;10704;42.678;23.288;2023-05-14T02:12:29;3.78;;;2.53;;
21091;SDS011;10704;42.678;23.288;2023-05-14T02:14:55;4.70;;;2.88;;
21091;SDS011;10704;42.678;23.288;2023-05-14T02:17:21;7.78;;;2.67;;
21091;SDS011;10704;42.678;23.288;2023-05-14T02:19:47;5.07;;;2.83;;
21091;SDS011;10704;42.678;23.288;2023-05-14T02:22:12;4.57;;;2.60;;
21091;SDS011;10704;42.678;23.288;2023-05-14T02:24:38;4.78;;;2.42;;
21091;SDS011;10704;42.678;23.288;2023-05-14T02:27:05;4.78;;;2.85;;
21091;SDS011;10704;42.678;23.288;2023-05-14T02:29:31;5.53;;;2.92;;
21091;SDS011;10704;42.678;23.288;2023-05-14T02:31:57;4.88;;;2.80;;
21091;SDS011;10704;42.678;23.288;2023-05-14T02:34:23;5.32;;;2.67;;
21091;SDS011;10704;42.678;23.288;2023-05-14T02:36:49;4.68;;;2.63;;
21091;SDS011;10704;42.678;23.288;2023-05-14T02:39:15;3.80;;;2.28;;
21091;SDS011;10704;42.678;23.288;2023-05-14T02:41:44;5.28;;;2.40;;
21091;SDS011;10704;42.678;23.288;2023-05-14T02:44:09;5.50;;;2.90;;
21091;SDS011;10704;42.678;23.288;2023-05-14T02:46:35;5.60;;;2.60;;
21091;SDS011;10704;42.678;23.288;2023-05-14T02:49:01;4.47;;;2.50;;
21091;SDS011;10704;42.678;23.288;2023-05-14T02:51:27;5.45;;;2.58;;
21091;SDS011;10704;42.678;23.288;2023-05-14T02:53:53;4.63;;;2.40;;
21091;SDS011;10704;42.678;23.288;2023-05-14T02:56:19;5.43;;;2.42;;
21091;SDS011;10704;42.678;23.288;2023-05-14T02:58:45;7.53;;;2.80;;
21091;SDS011;10704;42.678;23.288;2023-05-14T03:01:11;5.45;;;2.72;;
21091;SDS011;10704;42.678;23.288;2023-05-14T03:03:37;6.00;;;2.97;;
21091;SDS011;10704;42.678;23.288;2023-05-14T03:06:03;4.35;;;2.60;;
21091;SDS011;10704;42.678;23.288;2023-05-14T03:08:29;6.68;;;2.72;;
21091;SDS011;10704;42.678;23.288;2023-05-14T03:10:55;6.30;;;2.45;;
21091;SDS011;10704;42.678;23.288;2023-05-14T03:13:21;5.30;;;2.78;;
21091;SDS011;10704;42.678;23.288;2023-05-14T03:15:46;5.60;;;2.65;;
21091;SDS011;10704;42.678;23.288;2023-05-14T03:18:13;5.05;;;2.90;;
21091;SDS011;10704;42.678;23.288;2023-05-14T03:20:39;8.50;;;3.10;;
21091;SDS011;10704;42.678;23.288;2023-05-14T03:23:05;6.53;;;2.60;;
21091;SDS011;10704;42.678;23.288;2023-05-14T03:25:31;7.85;;;2.97;;
21091;SDS011;10704;42.678;23.288;2023-05-14T03:27:58;7.70;;;3.25;;
21091;SDS011;10704;42.678;23.288;2023-05-14T03:30:24;4.88;;;2.70;;
21091;SDS011;10704;42.678;23.288;2023-05-14T03:32:50;5.22;;;2.78;;
21091;SDS011;10704;42.678;23.288;2023-05-14T03:35:16;5.60;;;2.88;;
21091;SDS011;10704;42.678;23.288;2023-05-14T03:37:42;4.60;;;2.67;;
21091;SDS011;10704;42.678;23.288;2023-05-14T03:40:08;6.93;;;2.70;;
21091;SDS011;10704;42.678;23.288;2023-05-14T03:42:35;5.32;;;2.80;;
21091;SDS011;10704;42.678;23.288;2023-05-14T03:45:01;5.15;;;2.67;;
21091;SDS011;10704;42.678;23.288;2023-05-14T03:47:27;6.10;;;3.28;;
21091;SDS011;10704;42.678;23.288;2023-05-14T03:49:54;5.45;;;2.92;;
21091;SDS011;10704;42.678;23.288;2023-05-14T03:52:21;8.32;;;3.08;;
21091;SDS011;10704;42.678;23.288;2023-05-14T03:54:46;4.32;;;2.67;;
21091;SDS011;10704;42.678;23.288;2023-05-14T03:57:13;5.53;;;3.08;;
21091;SDS011;10704;42.678;23.288;2023-05-14T03:59:39;4.88;;;2.90;;
21091;SDS011;10704;42.678;23.288;2023-05-14T04:02:05;5.15;;;2.92;;
21091;SDS011;10704;42.678;23.288;2023-05-14T04:04:31;5.22;;;3.05;;
21091;SDS011;10704;42.678;23.288;2023-05-14T04:06:57;6.13;;;3.10;;
21091;SDS011;10704;42.678;23.288;2023-05-14T04:09:26;8.20;;;2.97;;
21091;SDS011;10704;42.678;23.288;2023-05-14T04:11:52;5.68;;;2.97;;
21091;SDS011;10704;42.678;23.288;2023-05-14T04:14:17;6.97;;;3.08;;
21091;SDS011;10704;42.678;23.288;2023-05-14T04:16:43;4.30;;;2.70;;
21091;SDS011;10704;42.678;23.288;2023-05-14T04:19:09;5.85;;;2.65;;
21091;SDS011;10704;42.678;23.288;2023-05-14T04:21:35;5.07;;;2.50;;
21091;SDS011;10704;42.678;23.288;2023-05-14T04:24:01;5.55;;;3.30;;
21091;SDS011;10704;42.678;23.288;2023-05-14T04:26:27;6.97;;;3.10;;
21091;SDS011;10704;42.678;23.288;2023-05-14T04:28:53;5.03;;;3.00;;
21091;SDS011;10704;42.678;23.288;2023-05-14T04:31:19;6.60;;;2.80;;
21091;SDS011;10704;42.678;23.288;2023-05-14T04:33:45;6.82;;;3.08;;
21091;SDS011;10704;42.678;23.288;2023-05-14T04:36:11;6.45;;;2.70;;
21091;SDS011;10704;42.678;23.288;2023-05-14T04:38:37;4.68;;;3.03;;
21091;SDS011;10704;42.678;23.288;2023-05-14T04:41:03;6.60;;;3.08;;
21091;SDS011;10704;42.678;23.288;2023-05-14T04:43:29;7.55;;;2.90;;
21091;SDS011;10704;42.678;23.288;2023-05-14T04:45:55;5.75;;;3.63;;
21091;SDS011;10704;42.678;23.288;2023-05-14T04:48:21;7.80;;;3.85;;
21091;SDS011;10704;42.678;23.288;2023-05-14T04:50:46;6.40;;;4.05;;
21091;SDS011;10704;42.678;23.288;2023-05-14T04:53:12;7.95;;;3.72;;
21091;SDS011;10704;42.678;23.288;2023-05-14T04:55:38;7.15;;;3.72;;
21091;SDS011;10704;42.678;23.288;2023-05-14T04:58:04;7.43;;;3.47;;
21091;SDS011;10704;42.678;23.288;2023-05-14T05:00:29;7.82;;;3.67;;
21091;SDS011;10704;42.678;23.288;2023-05-14T05:02:56;5.63;;;2.88;;
21091;SDS011;10704;42.678;23.288;2023-05-14T05:05:22;6.35;;;3.22;;
21091;SDS011;10704;42.678;23.288;2023-05-14T05:07:48;7.85;;;3.72;;
21091;SDS011;10704;42.678;23.288;2023-05-14T05:10:14;6.03;;;3.90;;
21091;SDS011;10704;42.678;23.288;2023-05-14T05:12:40;5.80;;;3.58;;
21091;SDS011;10704;42.678;23.288;2023-05-14T05:15:06;6.90;;;3.88;;
21091;SDS011;10704;42.678;23.288;2023-05-14T05:17:33;6.60;;;4.15;;
21091;SDS011;10704;42.678;23.288;2023-05-14T05:19:59;7.70;;;4.00;;
21091;SDS011;10704;42.678;23.288;2023-05-14T05:22:25;8.02;;;4.75;;
21091;SDS011;10704;42.678;23.288;2023-05-14T05:24:51;6.18;;;4.15;;
21091;SDS011;10704;42.678;23.288;2023-05-14T05:27:17;7.32;;;4.43;;
21091;SDS011;10704;42.678;23.288;2023-05-14T05:29:45;8.70;;;4.50;;
21091;SDS011;10704;42.678;23.288;2023-05-14T05:32:10;10.13;;;4.65;;
21091;SDS011;10704;42.678;23.288;2023-05-14T05:34:36;9.15;;;5.40;;
21091;SDS011;10704;42.678;23.288;2023-05-14T05:37:02;7.30;;;4.85;;
21091;SDS011;10704;42.678;23.288;2023-05-14T05:39:30;8.35;;;5.05;;
21091;SDS011;10704;42.678;23.288;2023-05-14T05:41:59;8.88;;;5.55;;
21091;SDS011;10704;42.678;23.288;2023-05-14T05:44:26;8.82;;;5.45;;
21091;SDS011;10704;42.678;23.288;2023-05-14T05:46:52;8.15;;;5.25;;
21091;SDS011;10704;42.678;23.288;2023-05-14T05:49:21;8.73;;;5.22;;
21091;SDS011;10704;42.678;23.288;2023-05-14T05:51:47;10.93;;;5.72;;
21091;SDS011;10704;42.678;23.288;2023-05-14T05:54:13;13.23;;;6.07;;
21091;SDS011;10704;42.678;23.288;2023-05-14T05:56:38;10.35;;;6.07;;
21091;SDS011;10704;42.678;23.288;2023-05-14T05:59:04;8.95;;;5.63;;
21091;SDS011;10704;42.678;23.288;2023-05-14T06:01:30;8.23;;;5.07;;
21091;SDS011;10704;42.678;23.288;2023-05-14T06:03:56;10.32;;;6.75;;
21091;SDS011;10704;42.678;23.288;2023-05-14T06:06:22;10.70;;;6.20;;
21091;SDS011;10704;42.678;23.288;2023-05-14T06:08:48;11.38;;;7.60;;
21091;SDS011;10704;42.678;23.288;2023-05-14T06:11:14;11.18;;;6.80;;
21091;SDS011;10704;42.678;23.288;2023-05-14T06:13:41;10.82;;;6.68;;
21091;SDS011;10704;42.678;23.288;2023-05-14T06:16:06;13.45;;;7.68;;
21091;SDS011;10704;42.678;23.288;2023-05-14T06:18:32;12.65;;;7.45;;
21091;SDS011;10704;42.678;23.288;2023-05-14T06:20:58;11.13;;;7.80;;
21091;SDS011;10704;42.678;23.288;2023-05-14T06:23:24;13.10;;;8.60;;
21091;SDS011;10704;42.678;23.288;2023-05-14T06:25:50;11.07;;;7.38;;
21091;SDS011;10704;42.678;23.288;2023-05-14T06:28:16;14.93;;;7.88;;
21091;SDS011;10704;42.678;23.288;2023-05-14T06:30:42;12.68;;;8.00;;
21091;SDS011;10704;42.678;23.288;2023-05-14T06:33:08;14.88;;;8.45;;
21091;SDS011;10704;42.678;23.288;2023-05-14T06:35:34;11.90;;;7.72;;
21091;SDS011;10704;42.678;23.288;2023-05-14T06:38:00;10.73;;;7.45;;
21091;SDS011;10704;42.678;23.288;2023-05-14T06:40:25;15.57;;;8.73;;
21091;SDS011;10704;42.678;23.288;2023-05-14T06:42:51;15.57;;;8.07;;
21091;SDS011;10704;42.678;23.288;2023-05-14T06:45:18;12.75;;;8.75;;
21091;SDS011;10704;42.678;23.288;2023-05-14T06:47:44;16.13;;;8.23;;
21091;SDS011;10704;42.678;23.288;2023-05-14T06:50:10;11.40;;;7.72;;
21091;SDS011;10704;42.678;23.288;2023-05-14T06:52:36;12.70;;;8.68;;
21091;SDS011;10704;42.678;23.288;2023-05-14T06:55:02;15.18;;;9.00;;
21091;SDS011;10704;42.678;23.288;2023-05-14T06:57:27;16.17;;;9.07;;
21091;SDS011;10704;42.678;23.288;2023-05-14T06:59:53;17.45;;;8.40;;
21091;SDS011;10704;42.678;23.288;2023-05-14T07:02:19;11.70;;;8.57;;
21091;SDS011;10704;42.678;23.288;2023-05-14T07:04:45;12.75;;;7.93;;
21091;SDS011;10704;42.678;23.288;2023-05-14T07:07:11;11.52;;;8.43;;
21091;SDS011;10704;42.678;23.288;2023-05-14T07:09:40;16.15;;;9.88;;
21091;SDS011;10704;42.678;23.288;2023-05-14T07:12:06;12.05;;;9.15;;
21091;SDS011;10704;42.678;23.288;2023-05-14T07:14:32;12.05;;;8.23;;
21091;SDS011;10704;42.678;23.288;2023-05-14T07:16:58;13.95;;;9.07;;
21091;SDS011;10704;42.678;23.288;2023-05-14T07:19:24;11.90;;;8.93;;
21091;SDS011;10704;42.678;23.288;2023-05-14T07:21:52;11.05;;;7.57;;
21091;SDS011;10704;42.678;23.288;2023-05-14T07:24:18;13.38;;;8.30;;
21091;SDS011;10704;42.678;23.288;2023-05-14T07:26:44;12.20;;;8.20;;
21091;SDS011;10704;42.678;23.288;2023-05-14T07:29:10;13.82;;;8.23;;
21091;SDS011;10704;42.678;23.288;2023-05-14T07:31:36;14.25;;;9.70;;
21091;SDS011;10704;42.678;23.288;2023-05-14T07:34:01;11.00;;;8.38;;
21091;SDS011;10704;42.678;23.288;2023-05-14T07:36:27;16.50;;;9.43;;
21091;SDS011;10704;42.678;23.288;2023-05-14T07:38:53;16.52;;;9.27;;
21091;SDS011;10704;42.678;23.288;2023-05-14T07:41:19;14.93;;;9.25;;
21091;SDS011;10704;42.678;23.288;2023-05-14T07:43:45;16.08;;;10.07;;
21091;SDS011;10704;42.678;23.288;2023-05-14T07:46:11;14.88;;;10.90;;
21091;SDS011;10704;42.678;23.288;2023-05-14T07:48:37;16.23;;;10.55;;
21091;SDS011;10704;42.678;23.288;2023-05-14T07:51:03;19.60;;;12.60;;
21091;SDS011;10704;42.678;23.288;2023-05-14T07:53:28;18.10;;;11.25;;
21091;SDS011;10704;42.678;23.288;2023-05-14T07:55:54;18.40;;;11.50;;
21091;SDS011;10704;42.678;23.288;2023-05-14T07:58:20;17.13;;;11.60;;
21091;SDS011;10704;42.678;23.288;2023-05-14T08:00:47;14.52;;;11.02;;
21091;SDS011;10704;42.678;23.288;2023-05-14T08:03:13;20.63;;;14.85;;
21091;SDS011;10704;42.678;23.288;2023-05-14T08:05:38;16.92;;;10.88;;
21091;SDS011;10704;42.678;23.288;2023-05-14T08:08:04;15.18;;;9.55;;
21091;SDS011;10704;42.678;23.288;2023-05-14T08:10:30;14.68;;;9.65;;
21091;SDS011;10704;42.678;23.288;2023-05-14T08:12:56;15.60;;;10.60;;
21091;SDS011;10704;42.678;23.288;2023-05-14T08:15:22;15.77;;;10.88;;
21091;SDS011;10704;42.678;23.288;2023-05-14T08:17:48;17.85;;;12.65;;
21091;SDS011;10704;42.678;23.288;2023-05-14T08:20:13;13.85;;;10.10;;
21091;SDS011;10704;42.678;23.288;2023-05-14T08:22:39;15.45;;;10.50;;
21091;SDS011;10704;42.678;23.288;2023-05-14T08:25:05;13.35;;;10.48;;
21091;SDS011;10704;42.678;23.288;2023-05-14T08:27:32;16.95;;;10.90;;
21091;SDS011;10704;42.678;23.288;2023-05-14T08:29:57;18.02;;;10.57;;
21091;SDS011;10704;42.678;23.288;2023-05-14T08:32:23;15.88;;;10.50;;
21091;SDS011;10704;42.678;23.288;2023-05-14T08:34:49;15.80;;;10.10;;
21091;SDS011;10704;42.678;23.288;2023-05-14T08:37:15;14.43;;;9.35;;
21091;SDS011;10704;42.678;23.288;2023-05-14T08:39:41;15.00;;;10.75;;
21091;SDS011;10704;42.678;23.288;2023-05-14T08:42:08;16.92;;;9.98;;
21091;SDS011;10704;42.678;23.288;2023-05-14T08:47:20;13.90;;;9.60;;
21091;SDS011;10704;42.678;23.288;2023-05-14T08:49:51;14.85;;;9.35;;
21091;SDS011;10704;42.678;23.288;2023-05-14T08:52:20;14.95;;;9.85;;
21091;SDS011;10704;42.678;23.288;2023-05-14T08:54:47;13.32;;;8.98;;
21091;SDS011;10704;42.678;23.288;2023-05-14T08:57:15;15.18;;;9.98;;
21091;SDS011;10704;42.678;23.288;2023-05-14T08:59:42;17.98;;;10.27;;
21091;SDS011;10704;42.678;23.288;2023-05-14T09:02:08;13.40;;;9.23;;
21091;SDS011;10704;42.678;23.288;2023-05-14T09:04:35;17.00;;;10.57;;
21091;SDS011;10704;42.678;23.288;2023-05-14T09:07:02;15.85;;;10.05;;
21091;SDS011;10704;42.678;23.288;2023-05-14T09:09:28;15.27;;;9.52;;
21091;SDS011;10704;42.678;23.288;2023-05-14T09:11:54;14.30;;;9.35;;
21091;SDS011;10704;42.678;23.288;2023-05-14T09:14:21;15.50;;;10.20;;
21091;SDS011;10704;42.678;23.288;2023-05-14T09:16:48;13.40;;;9.02;;
21091;SDS011;10704;42.678;23.288;2023-05-14T09:19:15;16.45;;;9.73;;
21091;SDS011;10704;42.678;23.288;2023-05-14T09:21:46;13.15;;;9.15;;
21091;SDS011;10704;42.678;23.288;2023-05-14T09:24:19;12.13;;;9.30;;
21091;SDS011;10704;42.678;23.288;2023-05-14T09:26:51;14.23;;;9.10;;
21091;SDS011;10704;42.678;23.288;2023-05-14T09:29:18;13.82;;;9.40;;
21091;SDS011;10704;42.678;23.288;2023-05-14T09:31:46;14.52;;;10.48;;
21091;SDS011;10704;42.678;23.288;2023-05-14T09:34:25;14.77;;;9.68;;
21091;SDS011;10704;42.678;23.288;2023-05-14T09:36:55;16.00;;;10.07;;
21091;SDS011;10704;42.678;23.288;2023-05-14T09:39:23;15.82;;;10.95;;
21091;SDS011;10704;42.678;23.288;2023-05-14T09:41:50;14.25;;;9.82;;
21091;SDS011;10704;42.678;23.288;2023-05-14T09:44:17;17.35;;;10.98;;
21091;SDS011;10704;42.678;23.288;2023-05-14T09:46:46;14.23;;;10.40;;
21091;SDS011;10704;42.678;23.288;2023-05-14T09:49:13;15.15;;;10.50;;
21091;SDS011;10704;42.678;23.288;2023-05-14T09:51:39;16.58;;;9.52;;
21091;SDS011;10704;42.678;23.288;2023-05-14T09:54:06;18.48;;;10.50;;
21091;SDS011;10704;42.678;23.288;2023-05-14T09:56:32;13.85;;;9.23;;
21091;SDS011;10704;42.678;23.288;2023-05-14T09:58:59;15.60;;;10.27;;
21091;SDS011;10704;42.678;23.288;2023-05-14T10:01:25;13.27;;;8.82;;
21091;SDS011;10704;42.678;23.288;2023-05-14T10:03:53;14.85;;;10.57;;
21091;SDS011;10704;42.678;23.288;2023-05-14T10:06:27;15.32;;;10.05;;
21091;SDS011;10704;42.678;23.288;2023-05-14T10:08:59;17.60;;;9.85;;
21091;SDS011;10704;42.678;23.288;2023-05-14T10:11:29;14.65;;;9.90;;
21091;SDS011;10704;42.678;23.288;2023-05-14T10:14:40;16.45;;;10.98;;
21091;SDS011;10704;42.678;23.288;2023-05-14T10:16:51;18.65;;;10.95;;
21091;SDS011;10704;42.678;23.288;2023-05-14T10:19:19;14.27;;;10.38;;
21091;SDS011;10704;42.678;23.288;2023-05-14T10:21:47;19.73;;;10.48;;
21091;SDS011;10704;42.678;23.288;2023-05-14T10:24:20;17.30;;;11.95;;
21091;SDS011;10704;42.678;23.288;2023-05-14T10:26:47;16.90;;;11.20;;
21091;SDS011;10704;42.678;23.288;2023-05-14T10:29:13;15.20;;;11.05;;
21091;SDS011;10704;42.678;23.288;2023-05-14T10:44:55;16.40;;;12.05;;
21091;SDS011;10704;42.678;23.288;2023-05-14T10:47:28;18.17;;;13.57;;
21091;SDS011;10704;42.678;23.288;2023-05-14T10:50:00;17.80;;;13.13;;
21091;SDS011;10704;42.678;23.288;2023-05-14T10:52:33;17.60;;;12.55;;
21091;SDS011;10704;42.678;23.288;2023-05-14T10:55:01;17.13;;;12.43;;
21091;SDS011;10704;42.678;23.288;2023-05-14T10:57:32;18.13;;;13.05;;
21091;SDS011;10704;42.678;23.288;2023-05-14T11:00:00;19.00;;;14.05;;
21091;SDS011;10704;42.678;23.288;2023-05-14T11:02:29;29.85;;;16.45;;
21091;SDS011;10704;42.678;23.288;2023-05-14T11:04:57;21.38;;;15.07;;
21091;SDS011;10704;42.678;23.288;2023-05-14T11:07:27;21.17;;;15.88;;
21091;SDS011;10704;42.678;23.288;2023-05-14T11:10:02;17.20;;;13.55;;
21091;SDS011;10704;42.678;23.288;2023-05-14T11:12:33;15.32;;;11.90;;
21091;SDS011;10704;42.678;23.288;2023-05-14T11:15:01;15.63;;;12.15;;
21091;SDS011;10704;42.678;23.288;2023-05-14T11:17:29;15.88;;;11.75;;
21091;SDS011;10704;42.678;23.288;2023-05-14T11:19:56;14.18;;;11.10;;
21091;SDS011;10704;42.678;23.288;2023-05-14T11:22:23;17.63;;;12.57;;
21091;SDS011;10704;42.678;23.288;2023-05-14T11:24:49;14.18;;;11.15;;
21091;SDS011;10704;42.678;23.288;2023-05-14T11:27:16;14.02;;;11.02;;
21091;SDS011;10704;42.678;23.288;2023-05-14T11:29:46;16.67;;;13.30;;
21091;SDS011;10704;42.678;23.288;2023-05-14T11:32:12;14.60;;;11.52;;
21091;SDS011;10704;42.678;23.288;2023-05-14T11:34:40;15.75;;;12.05;;
21091;SDS011;10704;42.678;23.288;2023-05-14T11:37:09;16.05;;;11.93;;
21091;SDS011;10704;42.678;23.288;2023-05-14T11:39:36;13.43;;;11.38;;
21091;SDS011;10704;42.678;23.288;2023-05-14T11:42:12;16.38;;;11.48;;
21091;SDS011;10704;42.678;23.288;2023-05-14T11:44:39;13.50;;;11.35;;
21091;SDS011;10704;42.678;23.288;2023-05-14T11:47:08;16.63;;;11.98;;
21091;SDS011;10704;42.678;23.288;2023-05-14T11:49:35;14.90;;;11.75;;
21091;SDS011;10704;42.678;23.288;2023-05-14T11:52:05;14.55;;;10.77;;
21091;SDS011;10704;42.678;23.288;2023-05-14T11:54:35;16.33;;;11.35;;
21091;SDS011;10704;42.678;23.288;2023-05-14T11:57:01;13.32;;;10.80;;
21091;SDS011;10704;42.678;23.288;2023-05-14T11:59:31;12.50;;;10.10;;
21091;SDS011;10704;42.678;23.288;2023-05-14T12:01:57;13.65;;;10.10;;
21091;SDS011;10704;42.678;23.288;2023-05-14T12:04:23;13.63;;;10.18;;
21091;SDS011;10704;42.678;23.288;2023-05-14T12:06:52;15.65;;;11.27;;
21091;SDS011;10704;42.678;23.288;2023-05-14T12:09:19;13.63;;;10.00;;
21091;SDS011;10704;42.678;23.288;2023-05-14T12:11:47;15.02;;;10.07;;
21091;SDS011;10704;42.678;23.288;2023-05-14T12:14:21;15.45;;;10.68;;
21091;SDS011;10704;42.678;23.288;2023-05-14T12:16:48;13.32;;;9.82;;
21091;SDS011;10704;42.678;23.288;2023-05-14T12:19:16;12.35;;;9.07;;
21091;SDS011;10704;42.678;23.288;2023-05-14T12:21:44;11.93;;;9.10;;
21091;SDS011;10704;42.678;23.288;2023-05-14T12:24:12;13.27;;;9.80;;
21091;SDS011;10704;42.678;23.288;2023-05-14T12:26:44;12.63;;;9.57;;
21091;SDS011;10704;42.678;23.288;2023-05-14T12:29:11;17.60;;;10.05;;
21091;SDS011;10704;42.678;23.288;2023-05-14T12:31:43;11.93;;;9.50;;
21091;SDS011;10704;42.678;23.288;2023-05-14T12:34:14;12.93;;;10.13;;
21091;SDS011;10704;42.678;23.288;2023-05-14T12:36:41;14.82;;;8.52;;
21091;SDS011;10704;42.678;23.288;2023-05-14T12:39:08;14.02;;;9.73;;
21091;SDS011;10704;42.678;23.288;2023-05-14T12:41:35;11.75;;;9.02;;
21091;SDS011;10704;42.678;23.288;2023-05-14T12:44:01;12.32;;;9.13;;
21091;SDS011;10704;42.678;23.288;2023-05-14T12:46:28;12.00;;;9.48;;
21091;SDS011;10704;42.678;23.288;2023-05-14T12:48:55;11.80;;;8.73;;
21091;SDS011;10704;42.678;23.288;2023-05-14T12:51:21;11.85;;;8.52;;
21091;SDS011;10704;42.678;23.288;2023-05-14T12:53:47;12.27;;;9.63;;
21091;SDS011;10704;42.678;23.288;2023-05-14T12:56:14;11.43;;;8.55;;
21091;SDS011;10704;42.678;23.288;2023-05-14T12:58:40;14.07;;;10.57;;
21091;SDS011;10704;42.678;23.288;2023-05-14T13:01:06;12.27;;;8.90;;
21091;SDS011;10704;42.678;23.288;2023-05-14T13:03:32;14.43;;;10.10;;
21091;SDS011;10704;42.678;23.288;2023-05-14T13:05:57;14.38;;;9.75;;
21091;SDS011;10704;42.678;23.288;2023-05-14T13:08:24;12.73;;;9.85;;
21091;SDS011;10704;42.678;23.288;2023-05-14T13:10:50;10.95;;;9.15;;
21091;SDS011;10704;42.678;23.288;2023-05-14T13:13:17;14.77;;;9.80;;
21091;SDS011;10704;42.678;23.288;2023-05-14T13:15:43;14.50;;;11.52;;
21091;SDS011;10704;42.678;23.288;2023-05-14T13:18:14;15.10;;;9.80;;
21091;SDS011;10704;42.678;23.288;2023-05-14T13:20:41;12.18;;;9.48;;
21091;SDS011;10704;42.678;23.288;2023-05-14T13:23:07;15.52;;;10.43;;
21091;SDS011;10704;42.678;23.288;2023-05-14T13:25:34;13.40;;;9.75;;
21091;SDS011;10704;42.678;23.288;2023-05-14T13:28:00;17.48;;;12.95;;
21091;SDS011;10704;42.678;23.288;2023-05-14T13:30:25;17.08;;;11.20;;
21091;SDS011;10704;42.678;23.288;2023-05-14T13:32:51;15.18;;;10.65;;
21091;SDS011;10704;42.678;23.288;2023-05-14T13:35:17;14.75;;;10.43;;
21091;SDS011;10704;42.678;23.288;2023-05-14T13:37:43;15.18;;;10.65;;
21091;SDS011;10704;42.678;23.288;2023-05-14T13:40:09;15.85;;;11.85;;
21091;SDS011;10704;42.678;23.288;2023-05-14T13:42:35;18.70;;;13.43;;
21091;SDS011;10704;42.678;23.288;2023-05-14T13:45:03;17.15;;;12.30;;
21091;SDS011;10704;42.678;23.288;2023-05-14T13:47:30;16.90;;;12.73;;
21091;SDS011;10704;42.678;23.288;2023-05-14T13:49:56;16.35;;;11.43;;
21091;SDS011;10704;42.678;23.288;2023-05-14T13:52:22;19.23;;;11.80;;
21091;SDS011;10704;42.678;23.288;2023-05-14T13:54:48;14.52;;;10.60;;
21091;SDS011;10704;42.678;23.288;2023-05-14T13:57:14;13.80;;;10.18;;
21091;SDS011;10704;42.678;23.288;2023-05-14T13:59:40;15.15;;;10.00;;
21091;SDS011;10704;42.678;23.288;2023-05-14T14:02:06;15.40;;;11.50;;
21091;SDS011;10704;42.678;23.288;2023-05-14T14:04:33;17.90;;;12.00;;
21091;SDS011;10704;42.678;23.288;2023-05-14T14:06:59;16.52;;;12.02;;
21091;SDS011;10704;42.678;23.288;2023-05-14T14:09:24;16.52;;;12.60;;
21091;SDS011;10704;42.678;23.288;2023-05-14T14:11:50;17.58;;;11.70;;
21091;SDS011;10704;42.678;23.288;2023-05-14T14:14:17;17.08;;;12.23;;
21091;SDS011;10704;42.678;23.288;2023-05-14T14:16:43;16.33;;;12.75;;
21091;SDS011;10704;42.678;23.288;2023-05-14T14:19:09;19.77;;;13.95;;
21091;SDS011;10704;42.678;23.288;2023-05-14T14:21:34;17.98;;;13.40;;
21091;SDS011;10704;42.678;23.288;2023-05-14T14:24:04;17.63;;;12.45;;
21091;SDS011;10704;42.678;23.288;2023-05-14T14:26:30;17.38;;;12.98;;
21091;SDS011;10704;42.678;23.288;2023-05-14T14:28:56;17.05;;;12.10;;
21091;SDS011;10704;42.678;23.288;2023-05-14T14:31:22;18.23;;;12.55;;
21091;SDS011;10704;42.678;23.288;2023-05-14T14:33:48;18.95;;;12.63;;
21091;SDS011;10704;42.678;23.288;2023-05-14T14:36:14;17.20;;;13.05;;
21091;SDS011;10704;42.678;23.288;2023-05-14T14:38:39;15.27;;;11.48;;
21091;SDS011;10704;42.678;23.288;2023-05-14T14:41:05;14.32;;;11.05;;
21091;SDS011;10704;42.678;23.288;2023-05-14T14:43:34;15.73;;;11.98;;
21091;SDS011;10704;42.678;23.288;2023-05-14T14:46:00;18.58;;;12.85;;
21091;SDS011;10704;42.678;23.288;2023-05-14T14:50:56;20.10;;;15.20;;